sensor_id;sensor_type;location;lat;lon;timestamp;temperature;humidity
76789;DHT22;65740;52.464;13.446;2022-12-01T19:58:04;14.70;50.80
76789;DHT22;65740;52.464;13.446;2022-12-01T20:00:30;14.70;50.80
76789;DHT22;65740;52.464;13.446;2022-12-01T20:02:57;14.60;50.60
76789;DHT22;65740;52.464;13.446;2022-12-01T20:05:23;14.60;50.60
76789;DHT22;65740;52.464;13.446;2022-12-01T20:08:30;14.70;50.30
76789;DHT22;65740;52.464;13.446;2022-12-01T20:10:57;14.70;49.90
76789;DHT22;65740;52.464;13.446;2022-12-01T20:13:26;14.60;50.20
76789;DHT22;65740;52.464;13.446;2022-12-01T20:15:51;14.50;50.20
76789;DHT22;65740;52.464;13.446;2022-12-01T20:18:17;14.50;50.00
76789;DHT22;65740;52.464;13.446;2022-12-01T20:20:43;14.40;50.10
76789;DHT22;65740;52.464;13.446;2022-12-01T20:23:08;14.40;50.10
76789;DHT22;65740;52.464;13.446;2022-12-01T20:25:34;14.50;50.20
76789;DHT22;65740;52.464;13.446;2022-12-01T20:28:00;14.50;50.20
76789;DHT22;65740;52.464;13.446;2022-12-01T20:30:26;14.50;50.00
76789;DHT22;65740;52.464;13.446;2022-12-01T20:32:51;14.50;49.80
76789;DHT22;65740;52.464;13.446;2022-12-01T20:35:17;14.60;50.00
76789;DHT22;65740;52.464;13.446;2022-12-01T20:37:43;14.60;49.80
76789;DHT22;65740;52.464;13.446;2022-12-01T20:40:09;14.60;49.80
76789;DHT22;65740;52.464;13.446;2022-12-01T20:42:35;14.60;49.70
76789;DHT22;65740;52.464;13.446;2022-12-01T20:45:04;14.60;49.60
76789;DHT22;65740;52.464;13.446;2022-12-01T20:47:30;14.70;49.70
76789;DHT22;65740;52.464;13.446;2022-12-01T20:49:56;14.70;49.50
76789;DHT22;65740;52.464;13.446;2022-12-01T20:52:21;14.70;49.50
76789;DHT22;65740;52.464;13.446;2022-12-01T20:54:47;14.70;49.50
76789;DHT22;65740;52.464;13.446;2022-12-01T20:57:13;14.80;49.50
76789;DHT22;65740;52.464;13.446;2022-12-01T20:59:38;14.80;49.50
76789;DHT22;65740;52.464;13.446;2022-12-01T21:02:04;14.80;49.50
76789;DHT22;65740;52.464;13.446;2022-12-01T21:04:29;14.80;49.40
76789;DHT22;65740;52.464;13.446;2022-12-01T21:06:56;14.80;49.40
76789;DHT22;65740;52.464;13.446;2022-12-01T21:09:22;14.80;49.40
76789;DHT22;65740;52.464;13.446;2022-12-01T21:11:49;14.80;49.60
76789;DHT22;65740;52.464;13.446;2022-12-01T21:17:42;14.80;49.50
76789;DHT22;65740;52.464;13.446;2022-12-01T21:22:46;14.80;49.40
76789;DHT22;65740;52.464;13.446;2022-12-01T21:25:16;14.70;49.20
76789;DHT22;65740;52.464;13.446;2022-12-01T21:27:43;14.70;49.40
76789;DHT22;65740;52.464;13.446;2022-12-01T21:30:27;14.70;49.20
76789;DHT22;65740;52.464;13.446;2022-12-01T21:33:27;14.70;49.30
76789;DHT22;65740;52.464;13.446;2022-12-01T21:35:55;14.60;49.40
76789;DHT22;65740;52.464;13.446;2022-12-01T21:38:21;14.60;49.20
76789;DHT22;65740;52.464;13.446;2022-12-01T21:40:47;14.60;49.30
76789;DHT22;65740;52.464;13.446;2022-12-01T21:43:21;14.60;49.30
76789;DHT22;65740;52.464;13.446;2022-12-01T21:46:14;14.50;49.30
76789;DHT22;65740;52.464;13.446;2022-12-01T21:48:40;14.50;49.60
76789;DHT22;65740;52.464;13.446;2022-12-01T21:51:19;14.50;49.60
76789;DHT22;65740;52.464;13.446;2022-12-01T21:53:47;14.40;49.60
76789;DHT22;65740;52.464;13.446;2022-12-01T21:56:33;14.40;49.60
76789;DHT22;65740;52.464;13.446;2022-12-01T21:59:10;14.40;49.80
76789;DHT22;65740;52.464;13.446;2022-12-01T22:01:39;14.40;49.60
76789;DHT22;65740;52.464;13.446;2022-12-01T22:04:12;14.40;49.50
76789;DHT22;65740;52.464;13.446;2022-12-01T22:06:48;14.40;49.40
76789;DHT22;65740;52.464;13.446;2022-12-01T22:09:28;14.40;49.40
76789;DHT22;65740;52.464;13.446;2022-12-01T22:12:03;14.40;49.20
76789;DHT22;65740;52.464;13.446;2022-12-01T22:14:35;14.40;49.40
76789;DHT22;65740;52.464;13.446;2022-12-01T22:19:45;14.40;49.20
76789;DHT22;65740;52.464;13.446;2022-12-01T22:24:46;14.50;49.20
76789;DHT22;65740;52.464;13.446;2022-12-01T22:32:37;14.60;49.00
76789;DHT22;65740;52.464;13.446;2022-12-01T22:35:29;14.60;49.00
76789;DHT22;65740;52.464;13.446;2022-12-01T22:38:00;14.60;48.90
76789;DHT22;65740;52.464;13.446;2022-12-01T22:40:39;14.60;48.90
76789;DHT22;65740;52.464;13.446;2022-12-01T22:45:39;14.70;49.00
76789;DHT22;65740;52.464;13.446;2022-12-01T22:50:54;14.70;49.50
76789;DHT22;65740;52.464;13.446;2022-12-01T22:53:27;14.80;49.00
76789;DHT22;65740;52.464;13.446;2022-12-01T22:55:54;14.80;49.00
76789;DHT22;65740;52.464;13.446;2022-12-01T22:58:33;14.80;48.90
76789;DHT22;65740;52.464;13.446;2022-12-01T23:01:06;14.80;49.00
76789;DHT22;65740;52.464;13.446;2022-12-01T23:03:32;14.80;49.00
76789;DHT22;65740;52.464;13.446;2022-12-01T23:05:58;14.70;48.90
76789;DHT22;65740;52.464;13.446;2022-12-01T23:08:24;14.70;48.90
76789;DHT22;65740;52.464;13.446;2022-12-01T23:10:50;14.70;48.90
76789;DHT22;65740;52.464;13.446;2022-12-01T23:13:21;14.70;49.10
76789;DHT22;65740;52.464;13.446;2022-12-01T23:15:49;14.70;49.00
76789;DHT22;65740;52.464;13.446;2022-12-01T23:18:27;14.60;48.90
76789;DHT22;65740;52.464;13.446;2022-12-01T23:20:55;14.60;48.90
76789;DHT22;65740;52.464;13.446;2022-12-01T23:23:32;14.60;48.80
76789;DHT22;65740;52.464;13.446;2022-12-01T23:26:00;14.60;48.80
76789;DHT22;65740;52.464;13.446;2022-12-01T23:28:28;14.60;48.90
76789;DHT22;65740;52.464;13.446;2022-12-01T23:30:57;14.60;48.80
76789;DHT22;65740;52.464;13.446;2022-12-01T23:33:27;14.50;48.80
76789;DHT22;65740;52.464;13.446;2022-12-01T23:36:17;14.50;48.70
76789;DHT22;65740;52.464;13.446;2022-12-01T23:38:48;14.40;48.70
76789;DHT22;65740;52.464;13.446;2022-12-01T23:41:20;14.40;48.70
76789;DHT22;65740;52.464;13.446;2022-12-01T23:43:48;14.40;48.70
76789;DHT22;65740;52.464;13.446;2022-12-01T23:46:17;14.40;49.00
76789;DHT22;65740;52.464;13.446;2022-12-01T23:48:57;14.40;48.90
76789;DHT22;65740;52.464;13.446;2022-12-01T23:51:28;14.30;49.00
76789;DHT22;65740;52.464;13.446;2022-12-01T23:53:56;14.30;48.90
76789;DHT22;65740;52.464;13.446;2022-12-01T23:56:23;14.30;49.00
76789;DHT22;65740;52.464;13.446;2022-12-01T23:58:51;14.30;49.20
